sensor_id;sensor_type;location;lat;lon;timestamp;temperature;humidity
47414;DHT22;33163;0.000;0.000;2022-11-15T00:00:06;18.90;65.40
47414;DHT22;33163;0.000;0.000;2022-11-15T00:02:33;18.90;65.50
47414;DHT22;33163;0.000;0.000;2022-11-15T00:05:00;18.90;65.40
47414;DHT22;33163;0.000;0.000;2022-11-15T00:07:26;18.90;65.50
47414;DHT22;33163;0.000;0.000;2022-11-15T00:09:54;18.90;65.40
47414;DHT22;33163;0.000;0.000;2022-11-15T00:12:21;18.80;65.40
47414;DHT22;33163;0.000;0.000;2022-11-15T00:14:48;18.80;65.30
47414;DHT22;33163;0.000;0.000;2022-11-15T00:17:14;18.80;65.30
47414;DHT22;33163;0.000;0.000;2022-11-15T00:19:41;18.80;65.40
47414;DHT22;33163;0.000;0.000;2022-11-15T00:22:08;18.80;65.40
47414;DHT22;33163;0.000;0.000;2022-11-15T00:24:35;18.80;65.40
47414;DHT22;33163;0.000;0.000;2022-11-15T00:27:03;18.80;65.30
47414;DHT22;33163;0.000;0.000;2022-11-15T00:29:29;18.80;65.30
47414;DHT22;33163;0.000;0.000;2022-11-15T00:31:56;18.80;65.40
47414;DHT22;33163;0.000;0.000;2022-11-15T00:34:23;18.80;65.30
47414;DHT22;33163;0.000;0.000;2022-11-15T00:36:50;18.80;65.30
47414;DHT22;33163;0.000;0.000;2022-11-15T00:39:16;18.80;65.40
47414;DHT22;33163;0.000;0.000;2022-11-15T00:41:43;18.80;65.40
47414;DHT22;33163;0.000;0.000;2022-11-15T00:44:11;18.80;65.40
47414;DHT22;33163;0.000;0.000;2022-11-15T00:46:38;18.80;65.40
47414;DHT22;33163;0.000;0.000;2022-11-15T00:49:04;18.70;65.30
47414;DHT22;33163;0.000;0.000;2022-11-15T00:51:31;18.70;65.40
47414;DHT22;33163;0.000;0.000;2022-11-15T00:53:58;18.80;65.40
47414;DHT22;33163;0.000;0.000;2022-11-15T00:56:25;18.70;65.40
47414;DHT22;33163;0.000;0.000;2022-11-15T00:58:52;18.70;65.30
47414;DHT22;33163;0.000;0.000;2022-11-15T01:01:20;18.70;65.40
47414;DHT22;33163;0.000;0.000;2022-11-15T01:03:47;18.70;65.40
47414;DHT22;33163;0.000;0.000;2022-11-15T01:06:14;18.70;65.40
47414;DHT22;33163;0.000;0.000;2022-11-15T01:08:40;18.70;65.40
47414;DHT22;33163;0.000;0.000;2022-11-15T01:11:09;18.70;65.40
47414;DHT22;33163;0.000;0.000;2022-11-15T01:13:37;18.70;65.40
47414;DHT22;33163;0.000;0.000;2022-11-15T01:16:08;18.70;65.50
47414;DHT22;33163;0.000;0.000;2022-11-15T01:18:37;18.70;65.50
47414;DHT22;33163;0.000;0.000;2022-11-15T01:21:09;18.70;65.50
47414;DHT22;33163;0.000;0.000;2022-11-15T01:23:36;18.70;65.50
47414;DHT22;33163;0.000;0.000;2022-11-15T01:26:05;18.70;65.60
47414;DHT22;33163;0.000;0.000;2022-11-15T01:28:34;18.70;65.60
47414;DHT22;33163;0.000;0.000;2022-11-15T01:31:02;18.70;65.60
47414;DHT22;33163;0.000;0.000;2022-11-15T01:33:29;18.70;65.60
47414;DHT22;33163;0.000;0.000;2022-11-15T01:35:57;18.70;65.60
47414;DHT22;33163;0.000;0.000;2022-11-15T01:38:24;18.70;65.60
47414;DHT22;33163;0.000;0.000;2022-11-15T01:40:51;18.70;65.60
47414;DHT22;33163;0.000;0.000;2022-11-15T01:43:19;18.70;65.60
47414;DHT22;33163;0.000;0.000;2022-11-15T01:45:50;18.60;65.50
47414;DHT22;33163;0.000;0.000;2022-11-15T01:48:17;18.60;65.50
47414;DHT22;33163;0.000;0.000;2022-11-15T01:50:44;18.60;65.50
47414;DHT22;33163;0.000;0.000;2022-11-15T01:53:13;18.60;65.60
47414;DHT22;33163;0.000;0.000;2022-11-15T01:55:40;18.60;65.60
47414;DHT22;33163;0.000;0.000;2022-11-15T01:58:07;18.60;65.50
47414;DHT22;33163;0.000;0.000;2022-11-15T02:00:34;18.60;65.50
47414;DHT22;33163;0.000;0.000;2022-11-15T02:03:01;18.70;65.60
47414;DHT22;33163;0.000;0.000;2022-11-15T02:05:30;18.60;65.50
47414;DHT22;33163;0.000;0.000;2022-11-15T02:07:57;18.60;65.50
47414;DHT22;33163;0.000;0.000;2022-11-15T02:10:25;18.60;65.50
47414;DHT22;33163;0.000;0.000;2022-11-15T02:12:53;18.60;65.50
47414;DHT22;33163;0.000;0.000;2022-11-15T02:15:22;18.60;65.50
47414;DHT22;33163;0.000;0.000;2022-11-15T02:18:07;18.60;65.60
47414;DHT22;33163;0.000;0.000;2022-11-15T02:20:39;18.60;65.60
47414;DHT22;33163;0.000;0.000;2022-11-15T02:30:03;18.60;65.60
47414;DHT22;33163;0.000;0.000;2022-11-15T02:32:36;18.60;65.50
47414;DHT22;33163;0.000;0.000;2022-11-15T02:35:16;18.60;65.60
47414;DHT22;33163;0.000;0.000;2022-11-15T02:37:47;18.60;65.60
47414;DHT22;33163;0.000;0.000;2022-11-15T02:40:26;18.60;65.70
47414;DHT22;33163;0.000;0.000;2022-11-15T02:42:57;18.60;65.70
47414;DHT22;33163;0.000;0.000;2022-11-15T02:46:02;18.60;65.70
47414;DHT22;33163;0.000;0.000;2022-11-15T02:48:32;18.60;65.80
47414;DHT22;33163;0.000;0.000;2022-11-15T02:50:59;18.60;65.90
47414;DHT22;33163;0.000;0.000;2022-11-15T02:53:27;18.60;66.00
47414;DHT22;33163;0.000;0.000;2022-11-15T02:55:55;18.60;66.10
47414;DHT22;33163;0.000;0.000;2022-11-15T02:58:48;18.60;66.20
47414;DHT22;33163;0.000;0.000;2022-11-15T03:01:24;18.60;66.30
47414;DHT22;33163;0.000;0.000;2022-11-15T03:04:04;18.60;66.40
47414;DHT22;33163;0.000;0.000;2022-11-15T03:06:38;18.60;66.40
47414;DHT22;33163;0.000;0.000;2022-11-15T03:09:13;18.60;66.50
47414;DHT22;33163;0.000;0.000;2022-11-15T03:11:49;18.60;66.60
47414;DHT22;33163;0.000;0.000;2022-11-15T03:14:22;18.60;66.60
47414;DHT22;33163;0.000;0.000;2022-11-15T03:16:58;18.60;66.60
47414;DHT22;33163;0.000;0.000;2022-11-15T03:19:30;18.60;66.60
47414;DHT22;33163;0.000;0.000;2022-11-15T03:22:00;18.60;66.60
47414;DHT22;33163;0.000;0.000;2022-11-15T03:24:30;18.60;66.60
47414;DHT22;33163;0.000;0.000;2022-11-15T03:26:59;18.60;66.60
47414;DHT22;33163;0.000;0.000;2022-11-15T03:29:31;18.60;66.70
47414;DHT22;33163;0.000;0.000;2022-11-15T03:32:02;18.60;66.70
47414;DHT22;33163;0.000;0.000;2022-11-15T03:34:33;18.60;66.70
47414;DHT22;33163;0.000;0.000;2022-11-15T03:37:01;18.60;66.70
47414;DHT22;33163;0.000;0.000;2022-11-15T03:39:29;18.60;66.80
47414;DHT22;33163;0.000;0.000;2022-11-15T03:42:04;18.60;66.80
47414;DHT22;33163;0.000;0.000;2022-11-15T03:44:40;18.60;66.80
47414;DHT22;33163;0.000;0.000;2022-11-15T03:47:12;18.60;66.90
47414;DHT22;33163;0.000;0.000;2022-11-15T03:49:47;18.60;66.90
47414;DHT22;33163;0.000;0.000;2022-11-15T03:52:17;18.60;66.90
47414;DHT22;33163;0.000;0.000;2022-11-15T03:54:52;18.60;66.90
47414;DHT22;33163;0.000;0.000;2022-11-15T03:57:19;18.60;67.00
47414;DHT22;33163;0.000;0.000;2022-11-15T03:59:46;18.60;67.00
47414;DHT22;33163;0.000;0.000;2022-11-15T04:02:13;18.60;67.10
47414;DHT22;33163;0.000;0.000;2022-11-15T04:04:40;18.60;67.10
47414;DHT22;33163;0.000;0.000;2022-11-15T04:07:08;18.60;67.10
47414;DHT22;33163;0.000;0.000;2022-11-15T04:09:34;18.60;67.10
47414;DHT22;33163;0.000;0.000;2022-11-15T04:12:23;18.60;67.20
47414;DHT22;33163;0.000;0.000;2022-11-15T04:14:56;18.50;67.80
47414;DHT22;33163;0.000;0.000;2022-11-15T04:17:33;18.50;67.20
47414;DHT22;33163;0.000;0.000;2022-11-15T04:20:00;18.50;67.20
47414;DHT22;33163;0.000;0.000;2022-11-15T04:22:46;18.50;67.20
47414;DHT22;33163;0.000;0.000;2022-11-15T04:25:30;18.50;67.30
47414;DHT22;33163;0.000;0.000;2022-11-15T04:27:56;18.50;67.30
47414;DHT22;33163;0.000;0.000;2022-11-15T04:30:23;18.50;67.40
47414;DHT22;33163;0.000;0.000;2022-11-15T04:32:50;18.60;67.50
47414;DHT22;33163;0.000;0.000;2022-11-15T04:35:16;18.50;67.40
47414;DHT22;33163;0.000;0.000;2022-11-15T04:37:43;18.50;67.40
47414;DHT22;33163;0.000;0.000;2022-11-15T04:40:11;18.50;67.50
47414;DHT22;33163;0.000;0.000;2022-11-15T04:42:40;18.60;67.50
47414;DHT22;33163;0.000;0.000;2022-11-15T04:45:07;18.50;67.50
47414;DHT22;33163;0.000;0.000;2022-11-15T04:47:34;18.50;67.50
47414;DHT22;33163;0.000;0.000;2022-11-15T04:50:01;18.50;67.60
47414;DHT22;33163;0.000;0.000;2022-11-15T04:52:28;18.50;67.60
47414;DHT22;33163;0.000;0.000;2022-11-15T04:54:54;18.50;67.70
47414;DHT22;33163;0.000;0.000;2022-11-15T04:57:22;18.50;67.60
47414;DHT22;33163;0.000;0.000;2022-11-15T04:59:49;18.50;68.30
47414;DHT22;33163;0.000;0.000;2022-11-15T05:02:16;18.50;67.60
47414;DHT22;33163;0.000;0.000;2022-11-15T05:04:43;18.50;67.70
47414;DHT22;33163;0.000;0.000;2022-11-15T05:07:08;18.50;67.70
47414;DHT22;33163;0.000;0.000;2022-11-15T05:09:35;18.50;67.70
47414;DHT22;33163;0.000;0.000;2022-11-15T05:12:02;18.50;67.80
47414;DHT22;33163;0.000;0.000;2022-11-15T05:14:30;18.50;67.80
47414;DHT22;33163;0.000;0.000;2022-11-15T05:16:57;18.50;67.80
47414;DHT22;33163;0.000;0.000;2022-11-15T05:19:23;18.50;67.80
47414;DHT22;33163;0.000;0.000;2022-11-15T05:21:50;18.50;67.80
47414;DHT22;33163;0.000;0.000;2022-11-15T05:24:17;18.50;67.80
47414;DHT22;33163;0.000;0.000;2022-11-15T05:26:44;18.50;67.80
47414;DHT22;33163;0.000;0.000;2022-11-15T05:29:10;18.50;67.80
47414;DHT22;33163;0.000;0.000;2022-11-15T05:31:40;18.50;67.80
47414;DHT22;33163;0.000;0.000;2022-11-15T05:34:08;18.50;67.80
47414;DHT22;33163;0.000;0.000;2022-11-15T05:36:36;18.50;67.90
47414;DHT22;33163;0.000;0.000;2022-11-15T05:39:05;18.50;67.90
47414;DHT22;33163;0.000;0.000;2022-11-15T05:41:34;18.50;68.50
47414;DHT22;33163;0.000;0.000;2022-11-15T05:44:03;18.50;67.80
47414;DHT22;33163;0.000;0.000;2022-11-15T05:46:33;18.50;67.90
47414;DHT22;33163;0.000;0.000;2022-11-15T05:49:01;18.50;67.90
47414;DHT22;33163;0.000;0.000;2022-11-15T05:51:29;18.50;67.90
47414;DHT22;33163;0.000;0.000;2022-11-15T05:53:57;18.40;67.90
47414;DHT22;33163;0.000;0.000;2022-11-15T05:56:25;18.40;67.90
47414;DHT22;33163;0.000;0.000;2022-11-15T05:58:52;18.50;67.90
47414;DHT22;33163;0.000;0.000;2022-11-15T06:01:19;18.40;67.90
47414;DHT22;33163;0.000;0.000;2022-11-15T06:03:46;18.50;67.90
47414;DHT22;33163;0.000;0.000;2022-11-15T06:06:14;18.50;68.00
47414;DHT22;33163;0.000;0.000;2022-11-15T06:08:41;18.50;67.90
47414;DHT22;33163;0.000;0.000;2022-11-15T06:11:08;18.40;67.90
47414;DHT22;33163;0.000;0.000;2022-11-15T06:13:35;18.40;67.90
47414;DHT22;33163;0.000;0.000;2022-11-15T06:16:01;18.50;67.90
47414;DHT22;33163;0.000;0.000;2022-11-15T06:18:31;18.40;67.90
47414;DHT22;33163;0.000;0.000;2022-11-15T06:20:58;18.40;68.00
47414;DHT22;33163;0.000;0.000;2022-11-15T06:23:27;18.40;68.00
47414;DHT22;33163;0.000;0.000;2022-11-15T06:25:57;18.40;67.90
47414;DHT22;33163;0.000;0.000;2022-11-15T06:28:24;18.40;68.00
47414;DHT22;33163;0.000;0.000;2022-11-15T06:30:50;18.40;68.00
47414;DHT22;33163;0.000;0.000;2022-11-15T06:33:17;18.40;68.00
47414;DHT22;33163;0.000;0.000;2022-11-15T06:35:44;18.40;67.90
47414;DHT22;33163;0.000;0.000;2022-11-15T06:38:11;18.40;68.00
47414;DHT22;33163;0.000;0.000;2022-11-15T06:40:39;18.40;68.10
47414;DHT22;33163;0.000;0.000;2022-11-15T06:43:06;18.40;68.30
47414;DHT22;33163;0.000;0.000;2022-11-15T06:45:33;18.40;68.50
47414;DHT22;33163;0.000;0.000;2022-11-15T06:48:00;18.40;68.90
47414;DHT22;33163;0.000;0.000;2022-11-15T06:50:27;18.40;68.90
47414;DHT22;33163;0.000;0.000;2022-11-15T06:52:53;18.40;69.10
47414;DHT22;33163;0.000;0.000;2022-11-15T06:55:20;18.40;69.10
47414;DHT22;33163;0.000;0.000;2022-11-15T06:57:50;18.40;69.30
47414;DHT22;33163;0.000;0.000;2022-11-15T07:00:18;18.40;69.50
47414;DHT22;33163;0.000;0.000;2022-11-15T07:02:46;18.40;69.50
47414;DHT22;33163;0.000;0.000;2022-11-15T07:05:13;18.40;69.70
47414;DHT22;33163;0.000;0.000;2022-11-15T07:07:40;18.40;69.60
47414;DHT22;33163;0.000;0.000;2022-11-15T07:10:08;18.50;69.70
47414;DHT22;33163;0.000;0.000;2022-11-15T07:12:35;18.40;69.70
47414;DHT22;33163;0.000;0.000;2022-11-15T07:15:04;18.50;69.80
47414;DHT22;33163;0.000;0.000;2022-11-15T07:17:31;18.40;69.90
47414;DHT22;33163;0.000;0.000;2022-11-15T07:19:58;18.40;69.80
47414;DHT22;33163;0.000;0.000;2022-11-15T07:22:25;18.40;69.90
47414;DHT22;33163;0.000;0.000;2022-11-15T07:24:52;18.40;69.90
47414;DHT22;33163;0.000;0.000;2022-11-15T07:27:19;18.40;69.90
47414;DHT22;33163;0.000;0.000;2022-11-15T07:29:46;18.40;69.80
47414;DHT22;33163;0.000;0.000;2022-11-15T07:32:14;18.40;69.80
47414;DHT22;33163;0.000;0.000;2022-11-15T07:34:40;18.40;69.80
47414;DHT22;33163;0.000;0.000;2022-11-15T07:37:07;18.40;69.80
47414;DHT22;33163;0.000;0.000;2022-11-15T07:39:34;18.40;69.80
47414;DHT22;33163;0.000;0.000;2022-11-15T07:42:01;18.40;69.80
47414;DHT22;33163;0.000;0.000;2022-11-15T07:44:45;18.40;69.70
47414;DHT22;33163;0.000;0.000;2022-11-15T07:47:13;18.40;69.70
47414;DHT22;33163;0.000;0.000;2022-11-15T07:49:40;18.40;69.70
47414;DHT22;33163;0.000;0.000;2022-11-15T07:52:07;18.40;69.70
47414;DHT22;33163;0.000;0.000;2022-11-15T07:54:33;18.40;69.60
47414;DHT22;33163;0.000;0.000;2022-11-15T07:57:00;18.40;69.60
47414;DHT22;33163;0.000;0.000;2022-11-15T07:59:27;18.40;69.60
47414;DHT22;33163;0.000;0.000;2022-11-15T08:01:54;18.40;69.50
47414;DHT22;33163;0.000;0.000;2022-11-15T08:04:22;18.40;69.50
47414;DHT22;33163;0.000;0.000;2022-11-15T08:06:49;18.40;69.50
47414;DHT22;33163;0.000;0.000;2022-11-15T08:09:15;18.40;69.40
47414;DHT22;33163;0.000;0.000;2022-11-15T08:11:42;18.40;69.40
47414;DHT22;33163;0.000;0.000;2022-11-15T08:14:09;18.40;69.30
47414;DHT22;33163;0.000;0.000;2022-11-15T08:16:36;18.40;69.30
47414;DHT22;33163;0.000;0.000;2022-11-15T08:19:02;18.40;69.30
47414;DHT22;33163;0.000;0.000;2022-11-15T08:21:31;18.40;69.30
47414;DHT22;33163;0.000;0.000;2022-11-15T08:23:57;18.40;69.20
47414;DHT22;33163;0.000;0.000;2022-11-15T08:26:24;18.40;69.20
47414;DHT22;33163;0.000;0.000;2022-11-15T08:28:54;18.40;69.20
47414;DHT22;33163;0.000;0.000;2022-11-15T08:31:21;18.40;69.10
47414;DHT22;33163;0.000;0.000;2022-11-15T08:33:48;18.40;69.10
47414;DHT22;33163;0.000;0.000;2022-11-15T08:36:16;18.40;69.10
47414;DHT22;33163;0.000;0.000;2022-11-15T08:38:44;18.40;69.10
47414;DHT22;33163;0.000;0.000;2022-11-15T08:41:13;18.40;69.00
47414;DHT22;33163;0.000;0.000;2022-11-15T08:43:42;18.40;69.00
47414;DHT22;33163;0.000;0.000;2022-11-15T08:46:11;18.40;68.90
47414;DHT22;33163;0.000;0.000;2022-11-15T08:48:38;18.40;68.90
47414;DHT22;33163;0.000;0.000;2022-11-15T08:51:05;18.40;69.00
47414;DHT22;33163;0.000;0.000;2022-11-15T08:53:33;18.40;68.90
47414;DHT22;33163;0.000;0.000;2022-11-15T08:56:02;18.40;68.90
47414;DHT22;33163;0.000;0.000;2022-11-15T08:58:29;18.40;68.90
47414;DHT22;33163;0.000;0.000;2022-11-15T09:00:56;18.40;68.80
47414;DHT22;33163;0.000;0.000;2022-11-15T09:03:22;18.40;68.80
47414;DHT22;33163;0.000;0.000;2022-11-15T09:05:54;18.40;68.70
47414;DHT22;33163;0.000;0.000;2022-11-15T09:08:21;18.40;68.70
47414;DHT22;33163;0.000;0.000;2022-11-15T09:10:48;18.40;68.60
47414;DHT22;33163;0.000;0.000;2022-11-15T09:13:16;18.50;68.70
47414;DHT22;33163;0.000;0.000;2022-11-15T09:15:42;18.50;68.70
47414;DHT22;33163;0.000;0.000;2022-11-15T09:18:09;18.50;68.70
47414;DHT22;33163;0.000;0.000;2022-11-15T09:20:36;18.50;68.70
47414;DHT22;33163;0.000;0.000;2022-11-15T09:23:04;18.60;68.70
47414;DHT22;33163;0.000;0.000;2022-11-15T09:25:32;18.60;68.70
47414;DHT22;33163;0.000;0.000;2022-11-15T09:27:58;18.60;68.70
47414;DHT22;33163;0.000;0.000;2022-11-15T09:30:27;18.70;68.90
47414;DHT22;33163;0.000;0.000;2022-11-15T09:32:53;18.70;68.80
47414;DHT22;33163;0.000;0.000;2022-11-15T09:35:23;18.70;68.80
47414;DHT22;33163;0.000;0.000;2022-11-15T09:37:50;18.70;68.80
47414;DHT22;33163;0.000;0.000;2022-11-15T09:40:17;18.70;68.70
47414;DHT22;33163;0.000;0.000;2022-11-15T09:43:09;18.80;68.90
47414;DHT22;33163;0.000;0.000;2022-11-15T09:45:45;18.80;68.90
47414;DHT22;33163;0.000;0.000;2022-11-15T09:51:29;18.80;68.80
47414;DHT22;33163;0.000;0.000;2022-11-15T09:54:01;18.90;68.70
47414;DHT22;33163;0.000;0.000;2022-11-15T09:56:30;18.90;68.60
47414;DHT22;33163;0.000;0.000;2022-11-15T09:59:05;18.90;68.60
47414;DHT22;33163;0.000;0.000;2022-11-15T10:01:39;18.90;68.40
47414;DHT22;33163;0.000;0.000;2022-11-15T10:04:07;18.90;68.40
47414;DHT22;33163;0.000;0.000;2022-11-15T10:06:38;18.90;68.40
47414;DHT22;33163;0.000;0.000;2022-11-15T10:09:13;19.00;68.40
47414;DHT22;33163;0.000;0.000;2022-11-15T10:11:41;19.00;68.40
47414;DHT22;33163;0.000;0.000;2022-11-15T10:14:11;19.00;68.40
47414;DHT22;33163;0.000;0.000;2022-11-15T10:19:40;19.10;68.40
47414;DHT22;33163;0.000;0.000;2022-11-15T10:22:20;19.20;68.40
47414;DHT22;33163;0.000;0.000;2022-11-15T10:24:50;19.20;68.40
47414;DHT22;33163;0.000;0.000;2022-11-15T10:27:19;19.20;68.30
47414;DHT22;33163;0.000;0.000;2022-11-15T10:29:47;19.30;68.30
47414;DHT22;33163;0.000;0.000;2022-11-15T10:32:16;19.30;68.20
47414;DHT22;33163;0.000;0.000;2022-11-15T10:34:44;19.40;68.30
47414;DHT22;33163;0.000;0.000;2022-11-15T10:37:11;19.40;68.30
47414;DHT22;33163;0.000;0.000;2022-11-15T10:39:38;19.40;68.20
47414;DHT22;33163;0.000;0.000;2022-11-15T10:42:24;19.50;68.30
47414;DHT22;33163;0.000;0.000;2022-11-15T10:44:52;19.50;68.30
47414;DHT22;33163;0.000;0.000;2022-11-15T10:47:25;19.50;68.30
47414;DHT22;33163;0.000;0.000;2022-11-15T10:49:56;19.50;68.30
47414;DHT22;33163;0.000;0.000;2022-11-15T10:52:23;19.50;68.30
47414;DHT22;33163;0.000;0.000;2022-11-15T10:54:53;19.50;68.20
47414;DHT22;33163;0.000;0.000;2022-11-15T10:57:23;19.50;68.20
47414;DHT22;33163;0.000;0.000;2022-11-15T10:59:53;19.50;68.30
47414;DHT22;33163;0.000;0.000;2022-11-15T11:02:35;19.50;68.20
47414;DHT22;33163;0.000;0.000;2022-11-15T11:05:06;19.50;68.00
47414;DHT22;33163;0.000;0.000;2022-11-15T11:07:34;19.50;68.00
47414;DHT22;33163;0.000;0.000;2022-11-15T11:10:04;19.50;68.10
47414;DHT22;33163;0.000;0.000;2022-11-15T11:12:33;19.50;68.20
47414;DHT22;33163;0.000;0.000;2022-11-15T11:15:01;19.50;68.00
47414;DHT22;33163;0.000;0.000;2022-11-15T11:17:51;19.50;68.00
47414;DHT22;33163;0.000;0.000;2022-11-15T11:20:26;19.50;67.90
47414;DHT22;33163;0.000;0.000;2022-11-15T11:23:01;19.50;67.90
47414;DHT22;33163;0.000;0.000;2022-11-15T11:25:34;19.40;67.70
47414;DHT22;33163;0.000;0.000;2022-11-15T11:28:14;19.40;67.80
47414;DHT22;33163;0.000;0.000;2022-11-15T11:30:53;19.50;67.70
47414;DHT22;33163;0.000;0.000;2022-11-15T11:33:22;19.50;67.70
47414;DHT22;33163;0.000;0.000;2022-11-15T11:35:59;19.50;67.60
47414;DHT22;33163;0.000;0.000;2022-11-15T11:38:41;19.50;67.50
47414;DHT22;33163;0.000;0.000;2022-11-15T11:41:15;19.60;67.50
47414;DHT22;33163;0.000;0.000;2022-11-15T11:44:01;19.60;67.50
47414;DHT22;33163;0.000;0.000;2022-11-15T11:46:47;19.50;67.50
47414;DHT22;33163;0.000;0.000;2022-11-15T11:49:18;19.50;67.50
47414;DHT22;33163;0.000;0.000;2022-11-15T11:51:52;19.50;67.60
47414;DHT22;33163;0.000;0.000;2022-11-15T11:54:23;19.40;67.40
47414;DHT22;33163;0.000;0.000;2022-11-15T11:56:53;19.50;67.60
47414;DHT22;33163;0.000;0.000;2022-11-15T11:59:29;19.50;67.40
47414;DHT22;33163;0.000;0.000;2022-11-15T12:02:02;19.50;67.30
47414;DHT22;33163;0.000;0.000;2022-11-15T12:04:40;19.50;67.30
47414;DHT22;33163;0.000;0.000;2022-11-15T12:07:15;19.60;67.20
47414;DHT22;33163;0.000;0.000;2022-11-15T12:09:47;19.60;67.10
47414;DHT22;33163;0.000;0.000;2022-11-15T12:12:18;19.60;67.20
47414;DHT22;33163;0.000;0.000;2022-11-15T12:14:50;19.60;67.30
47414;DHT22;33163;0.000;0.000;2022-11-15T12:17:22;19.60;67.30
47414;DHT22;33163;0.000;0.000;2022-11-15T12:19:51;19.70;67.30
47414;DHT22;33163;0.000;0.000;2022-11-15T12:22:22;19.70;67.20
47414;DHT22;33163;0.000;0.000;2022-11-15T12:24:54;19.80;67.20
47414;DHT22;33163;0.000;0.000;2022-11-15T12:27:31;19.80;67.20
47414;DHT22;33163;0.000;0.000;2022-11-15T12:30:03;19.80;67.20
47414;DHT22;33163;0.000;0.000;2022-11-15T12:32:33;19.80;67.20
47414;DHT22;33163;0.000;0.000;2022-11-15T12:35:01;19.80;67.10
47414;DHT22;33163;0.000;0.000;2022-11-15T12:37:48;19.80;67.10
47414;DHT22;33163;0.000;0.000;2022-11-15T12:41:11;19.80;67.80
47414;DHT22;33163;0.000;0.000;2022-11-15T12:43:39;19.80;67.10
47414;DHT22;33163;0.000;0.000;2022-11-15T12:46:12;19.70;67.00
47414;DHT22;33163;0.000;0.000;2022-11-15T12:48:57;19.70;67.10
47414;DHT22;33163;0.000;0.000;2022-11-15T12:55:01;19.70;67.10
47414;DHT22;33163;0.000;0.000;2022-11-15T12:57:42;19.60;67.00
47414;DHT22;33163;0.000;0.000;2022-11-15T13:03:28;19.60;67.20
47414;DHT22;33163;0.000;0.000;2022-11-15T13:06:06;19.60;67.20
47414;DHT22;33163;0.000;0.000;2022-11-15T13:08:46;19.50;67.10
47414;DHT22;33163;0.000;0.000;2022-11-15T13:11:45;19.50;67.20
47414;DHT22;33163;0.000;0.000;2022-11-15T13:14:47;19.50;67.00
47414;DHT22;33163;0.000;0.000;2022-11-15T13:17:29;19.40;67.10
47414;DHT22;33163;0.000;0.000;2022-11-15T13:20:02;19.40;67.00
47414;DHT22;33163;0.000;0.000;2022-11-15T13:22:39;19.40;67.20
47414;DHT22;33163;0.000;0.000;2022-11-15T13:28:31;19.30;68.30
47414;DHT22;33163;0.000;0.000;2022-11-15T13:30:59;19.30;67.70
47414;DHT22;33163;0.000;0.000;2022-11-15T13:33:31;19.30;67.60
47414;DHT22;33163;0.000;0.000;2022-11-15T13:36:02;19.30;67.40
47414;DHT22;33163;0.000;0.000;2022-11-15T13:38:31;19.30;67.50
47414;DHT22;33163;0.000;0.000;2022-11-15T13:40:59;19.30;67.30
47414;DHT22;33163;0.000;0.000;2022-11-15T13:43:36;19.20;67.30
47414;DHT22;33163;0.000;0.000;2022-11-15T13:46:05;19.20;67.20
47414;DHT22;33163;0.000;0.000;2022-11-15T13:48:32;19.20;67.10
47414;DHT22;33163;0.000;0.000;2022-11-15T13:51:02;19.20;67.30
47414;DHT22;33163;0.000;0.000;2022-11-15T13:53:30;19.20;67.80
47414;DHT22;33163;0.000;0.000;2022-11-15T13:55:58;19.20;67.00
47414;DHT22;33163;0.000;0.000;2022-11-15T13:58:25;19.20;67.00
47414;DHT22;33163;0.000;0.000;2022-11-15T14:00:59;19.20;66.90
47414;DHT22;33163;0.000;0.000;2022-11-15T14:03:28;19.10;66.80
47414;DHT22;33163;0.000;0.000;2022-11-15T14:06:06;19.10;66.70
47414;DHT22;33163;0.000;0.000;2022-11-15T14:08:33;19.10;66.70
47414;DHT22;33163;0.000;0.000;2022-11-15T14:11:14;19.10;66.90
47414;DHT22;33163;0.000;0.000;2022-11-15T14:14:02;19.10;66.70
47414;DHT22;33163;0.000;0.000;2022-11-15T14:16:33;19.10;66.80
47414;DHT22;33163;0.000;0.000;2022-11-15T14:19:00;19.10;66.60
47414;DHT22;33163;0.000;0.000;2022-11-15T14:21:29;19.10;66.60
47414;DHT22;33163;0.000;0.000;2022-11-15T14:24:13;19.10;66.80
47414;DHT22;33163;0.000;0.000;2022-11-15T14:26:40;19.10;66.80
47414;DHT22;33163;0.000;0.000;2022-11-15T14:29:23;19.00;66.60
47414;DHT22;33163;0.000;0.000;2022-11-15T14:31:50;19.00;66.40
47414;DHT22;33163;0.000;0.000;2022-11-15T14:34:17;19.00;66.50
47414;DHT22;33163;0.000;0.000;2022-11-15T14:36:45;19.00;66.50
47414;DHT22;33163;0.000;0.000;2022-11-15T14:39:12;19.00;66.50
47414;DHT22;33163;0.000;0.000;2022-11-15T14:41:39;19.00;66.70
47414;DHT22;33163;0.000;0.000;2022-11-15T14:44:09;19.00;66.60
47414;DHT22;33163;0.000;0.000;2022-11-15T14:46:36;19.00;66.70
47414;DHT22;33163;0.000;0.000;2022-11-15T14:49:03;19.00;66.80
47414;DHT22;33163;0.000;0.000;2022-11-15T14:51:30;18.90;66.50
47414;DHT22;33163;0.000;0.000;2022-11-15T14:53:59;19.00;66.70
47414;DHT22;33163;0.000;0.000;2022-11-15T14:56:26;19.00;66.50
47414;DHT22;33163;0.000;0.000;2022-11-15T14:58:53;18.90;66.50
47414;DHT22;33163;0.000;0.000;2022-11-15T15:01:23;18.90;66.60
47414;DHT22;33163;0.000;0.000;2022-11-15T15:03:50;18.90;66.50
47414;DHT22;33163;0.000;0.000;2022-11-15T15:06:19;18.90;66.40
47414;DHT22;33163;0.000;0.000;2022-11-15T15:08:46;18.90;66.50
47414;DHT22;33163;0.000;0.000;2022-11-15T15:11:21;18.90;66.50
47414;DHT22;33163;0.000;0.000;2022-11-15T15:13:48;18.90;66.50
47414;DHT22;33163;0.000;0.000;2022-11-15T15:16:14;18.90;66.60
47414;DHT22;33163;0.000;0.000;2022-11-15T15:18:41;18.90;66.60
47414;DHT22;33163;0.000;0.000;2022-11-15T15:21:19;18.90;66.60
47414;DHT22;33163;0.000;0.000;2022-11-15T15:23:46;18.90;66.70
47414;DHT22;33163;0.000;0.000;2022-11-15T15:26:13;18.90;66.50
47414;DHT22;33163;0.000;0.000;2022-11-15T15:28:41;18.90;66.60
47414;DHT22;33163;0.000;0.000;2022-11-15T15:31:09;18.90;66.50
47414;DHT22;33163;0.000;0.000;2022-11-15T15:33:36;18.90;66.50
47414;DHT22;33163;0.000;0.000;2022-11-15T15:36:03;18.90;66.70
47414;DHT22;33163;0.000;0.000;2022-11-15T15:38:30;18.90;66.70
47414;DHT22;33163;0.000;0.000;2022-11-15T15:40:56;18.90;66.60
47414;DHT22;33163;0.000;0.000;2022-11-15T15:43:25;18.80;66.50
47414;DHT22;33163;0.000;0.000;2022-11-15T15:45:53;18.80;66.60
47414;DHT22;33163;0.000;0.000;2022-11-15T15:48:19;18.90;66.80
47414;DHT22;33163;0.000;0.000;2022-11-15T15:50:46;18.80;66.70
47414;DHT22;33163;0.000;0.000;2022-11-15T15:53:14;18.80;66.80
47414;DHT22;33163;0.000;0.000;2022-11-15T15:55:42;18.80;66.70
47414;DHT22;33163;0.000;0.000;2022-11-15T15:58:09;18.80;66.70
47414;DHT22;33163;0.000;0.000;2022-11-15T16:00:36;18.80;66.80
47414;DHT22;33163;0.000;0.000;2022-11-15T16:03:05;18.80;66.80
47414;DHT22;33163;0.000;0.000;2022-11-15T16:05:32;18.80;66.90
47414;DHT22;33163;0.000;0.000;2022-11-15T16:07:59;18.80;66.90
47414;DHT22;33163;0.000;0.000;2022-11-15T16:10:27;18.80;67.00
47414;DHT22;33163;0.000;0.000;2022-11-15T16:12:55;18.90;66.70
47414;DHT22;33163;0.000;0.000;2022-11-15T16:15:23;18.90;66.50
47414;DHT22;33163;0.000;0.000;2022-11-15T16:17:52;19.00;66.30
47414;DHT22;33163;0.000;0.000;2022-11-15T16:20:35;19.10;66.10
47414;DHT22;33163;0.000;0.000;2022-11-15T16:23:05;19.20;65.90
47414;DHT22;33163;0.000;0.000;2022-11-15T16:25:34;19.20;65.90